createdAt,value
2024-03-08T00:00:55.220Z,28.23
2024-03-08T00:03:24.348Z,22.47
2024-03-08T00:05:52.893Z,23.60
2024-03-08T00:08:21.311Z,23.63
2024-03-08T00:10:49.731Z,24.50
2024-03-08T00:13:18.374Z,22.87
2024-03-08T00:15:48.172Z,34.63
2024-03-08T00:18:16.774Z,24.90
2024-03-08T00:20:46.023Z,24.40
2024-03-08T00:23:14.502Z,24.57
2024-03-08T00:25:42.932Z,22.47
2024-03-08T00:28:14.579Z,19.93
2024-03-08T00:30:43.837Z,25.63
2024-03-08T00:33:14.283Z,22.03
2024-03-08T00:35:42.761Z,20.73
2024-03-08T00:38:11.116Z,27.20
2024-03-08T00:40:39.445Z,22.27
2024-03-08T00:43:07.810Z,22.30
2024-03-08T00:45:36.160Z,22.33
2024-03-08T00:48:04.689Z,26.73
2024-03-08T00:50:35.005Z,23.10
2024-03-08T00:53:03.111Z,20.80
2024-03-08T00:55:31.651Z,23.23
2024-03-08T00:57:59.986Z,20.67
2024-03-08T01:00:29.003Z,24.50
2024-03-08T01:02:57.446Z,27.43
2024-03-08T01:05:25.971Z,22.73
2024-03-08T01:07:55.672Z,25.73
2024-03-08T01:10:24.040Z,26.90
2024-03-08T01:12:52.350Z,26.67
2024-03-08T01:15:20.895Z,28.80
2024-03-08T01:17:49.348Z,26.63
2024-03-08T01:20:18.966Z,25.20
2024-03-08T01:22:47.552Z,23.70
2024-03-08T01:25:17.336Z,25.00
2024-03-08T01:27:45.710Z,31.90
2024-03-08T01:30:14.403Z,22.17
2024-03-08T01:32:43.737Z,24.10
2024-03-08T01:35:12.124Z,22.67
2024-03-08T01:37:40.458Z,22.53
2024-03-08T01:40:10.777Z,26.17
2024-03-08T01:42:40.435Z,23.93
2024-03-08T01:45:09.226Z,26.57
2024-03-08T01:47:37.926Z,26.17
2024-03-08T01:50:08.041Z,26.40
2024-03-08T01:52:36.922Z,25.23
2024-03-08T01:55:08.185Z,22.77
2024-03-08T01:57:37.031Z,28.23
2024-03-08T02:00:11.379Z,25.63
2024-03-08T02:02:41.378Z,25.47
2024-03-08T02:05:09.857Z,28.93
2024-03-08T02:07:38.441Z,25.57
2024-03-08T02:10:07.610Z,27.53
2024-03-08T02:12:35.971Z,25.10
2024-03-08T02:15:04.431Z,26.67
2024-03-08T02:17:34.566Z,21.30
2024-03-08T02:20:05.088Z,23.03
2024-03-08T02:22:34.873Z,23.47
2024-03-08T02:25:03.719Z,23.53
2024-03-08T02:27:32.283Z,21.67
2024-03-08T02:30:01.090Z,25.43
2024-03-08T02:32:29.379Z,27.83
2024-03-08T02:35:01.215Z,32.30
2024-03-08T02:37:30.266Z,22.80
2024-03-08T02:40:00.021Z,26.90
2024-03-08T02:42:28.625Z,27.57
2024-03-08T02:44:57.002Z,21.87
2024-03-08T02:47:28.024Z,24.93
2024-03-08T02:49:57.011Z,22.87
2024-03-08T02:52:25.784Z,27.10
2024-03-08T02:54:54.433Z,26.13
2024-03-08T02:57:24.393Z,22.90
2024-03-08T02:59:52.765Z,27.83
2024-03-08T03:02:21.248Z,23.07
2024-03-08T03:04:49.661Z,23.07
2024-03-08T03:07:18.042Z,21.70
2024-03-08T03:09:46.498Z,23.13
2024-03-08T03:12:15.302Z,25.73
2024-03-08T03:14:45.137Z,27.17
2024-03-08T03:17:13.484Z,27.20
2024-03-08T03:19:44.186Z,23.80
2024-03-08T03:22:12.489Z,25.57
2024-03-08T03:24:41.197Z,27.17
2024-03-08T03:27:12.707Z,25.67
2024-03-08T03:29:43.385Z,27.70
2024-03-08T03:32:13.244Z,21.97
2024-03-08T03:34:41.688Z,28.47
2024-03-08T03:37:13.484Z,25.23
2024-03-08T03:39:49.824Z,29.83
2024-03-08T03:42:18.972Z,22.00
2024-03-08T03:44:48.294Z,25.73
2024-03-08T03:47:18.424Z,21.77
2024-03-08T03:49:47.242Z,27.47
2024-03-08T03:52:16.696Z,27.37
2024-03-08T03:54:45.054Z,26.03
2024-03-08T03:57:13.816Z,28.77
2024-03-08T03:59:43.433Z,22.80
2024-03-08T04:02:11.858Z,35.07
2024-03-08T04:04:41.522Z,21.07
2024-03-08T04:07:10.981Z,34.00
2024-03-08T04:09:39.573Z,25.97
2024-03-08T04:12:08.280Z,32.57
2024-03-08T04:14:36.678Z,28.30
2024-03-08T04:17:05.065Z,27.83
2024-03-08T04:19:33.398Z,25.27
2024-03-08T04:22:03.400Z,35.47
2024-03-08T04:24:32.252Z,26.93
2024-03-08T04:27:00.675Z,27.30
2024-03-08T04:29:28.848Z,25.77
2024-03-08T04:31:57.177Z,36.73
2024-03-08T04:34:26.035Z,25.90
2024-03-08T04:36:54.606Z,33.77
2024-03-08T04:39:24.357Z,23.40
2024-03-08T04:41:53.161Z,26.07
2024-03-08T04:44:21.530Z,27.17
2024-03-08T04:46:50.261Z,27.43
2024-03-08T04:49:18.729Z,28.70
2024-03-08T04:51:47.456Z,30.40
2024-03-08T04:54:15.802Z,30.60
2024-03-08T04:56:45.516Z,29.20
2024-03-08T04:59:14.777Z,33.03
2024-03-08T05:01:42.809Z,30.40
2024-03-08T05:04:11.143Z,31.93
2024-03-08T05:06:39.910Z,32.77
2024-03-08T05:09:14.768Z,31.03
2024-03-08T05:11:45.073Z,28.33
2024-03-08T05:14:16.052Z,32.97
2024-03-08T05:16:44.323Z,32.73
2024-03-08T05:19:12.657Z,31.33
2024-03-08T05:21:40.987Z,28.33
2024-03-08T05:24:11.168Z,29.60
2024-03-08T05:26:39.555Z,30.07
2024-03-08T05:29:10.152Z,32.30
2024-03-08T05:31:41.481Z,32.67
2024-03-08T05:34:11.471Z,32.40
2024-03-08T05:36:42.594Z,26.73
2024-03-08T05:39:12.913Z,33.70
2024-03-08T05:41:41.618Z,28.17
2024-03-08T05:44:11.497Z,29.63
2024-03-08T05:46:40.313Z,28.43
2024-03-08T05:49:11.682Z,29.57
2024-03-08T05:51:41.335Z,27.23
2024-03-08T05:54:11.189Z,33.43
2024-03-08T05:56:40.252Z,37.33
2024-03-08T05:59:08.637Z,32.90
2024-03-08T06:01:39.058Z,38.17
2024-03-08T06:04:08.383Z,37.90
2024-03-08T06:06:39.274Z,29.80
2024-03-08T06:09:12.639Z,28.57
2024-03-08T06:11:41.465Z,28.23
2024-03-08T06:14:10.053Z,28.43
2024-03-08T06:16:40.084Z,33.90
2024-03-08T06:19:09.050Z,31.93
2024-03-08T06:21:37.432Z,28.60
2024-03-08T06:24:06.075Z,34.00
2024-03-08T06:26:37.212Z,35.07
2024-03-08T06:29:07.881Z,28.70
2024-03-08T06:31:40.083Z,25.20
2024-03-08T06:34:10.638Z,36.40
2024-03-08T06:36:40.341Z,32.47
2024-03-08T06:39:11.009Z,37.27
2024-03-08T06:41:40.119Z,33.47
2024-03-08T06:44:10.299Z,33.50
2024-03-08T06:46:39.389Z,32.37
2024-03-08T06:49:08.846Z,34.87
2024-03-08T06:51:38.566Z,28.50
2024-03-08T06:54:10.173Z,32.13
2024-03-08T06:56:39.460Z,33.63
2024-03-08T06:59:07.749Z,36.43
2024-03-08T07:01:37.787Z,39.67
2024-03-08T07:04:07.615Z,37.77
2024-03-08T07:06:37.937Z,31.27
2024-03-08T07:09:07.410Z,29.10
2024-03-08T07:11:35.996Z,40.00
2024-03-08T07:14:07.581Z,33.23
2024-03-08T07:16:36.547Z,28.00
2024-03-08T07:19:04.749Z,29.70
2024-03-08T07:21:33.126Z,33.37
2024-03-08T07:24:25.625Z,30.70
2024-03-08T07:26:56.504Z,33.17
2024-03-08T07:29:24.143Z,30.77
2024-03-08T07:32:03.509Z,31.37
2024-03-08T07:34:33.047Z,33.70
2024-03-08T07:37:01.521Z,32.63
2024-03-08T07:39:29.967Z,36.03
2024-03-08T07:41:59.783Z,32.53
2024-03-08T07:44:28.143Z,32.47
2024-03-08T07:46:58.304Z,33.20
2024-03-08T07:49:26.866Z,32.80
2024-03-08T07:51:55.185Z,27.47
2024-03-08T07:54:23.551Z,30.67
2024-03-08T07:56:52.347Z,31.43
2024-03-08T07:59:22.597Z,29.90
2024-03-08T08:01:51.017Z,32.60
2024-03-08T08:04:20.306Z,32.87
2024-03-08T08:06:48.767Z,32.33
2024-03-08T08:09:23.401Z,31.97
2024-03-08T08:11:51.732Z,28.70
2024-03-08T08:14:22.377Z,28.23
2024-03-08T08:16:54.012Z,28.83
2024-03-08T08:19:22.511Z,29.07
2024-03-08T08:21:50.923Z,35.63
2024-03-08T08:24:21.121Z,31.43
2024-03-08T08:26:49.414Z,30.63
2024-03-08T08:29:18.049Z,42.57
2024-03-08T08:31:46.535Z,25.97
2024-03-08T08:34:16.346Z,29.30
2024-03-08T08:36:44.670Z,28.70
2024-03-08T08:39:14.749Z,32.60
2024-03-08T08:41:43.273Z,30.07
2024-03-08T08:44:16.379Z,32.40
2024-03-08T08:46:45.309Z,26.93
2024-03-08T08:49:15.840Z,34.13
2024-03-08T08:51:51.477Z,33.63
2024-03-08T08:54:19.872Z,31.23
2024-03-08T08:56:48.449Z,28.53
2024-03-08T08:59:18.282Z,26.37
2024-03-08T09:01:48.830Z,26.57
2024-03-08T09:04:17.587Z,29.50
2024-03-08T09:06:47.288Z,26.30
2024-03-08T09:09:15.455Z,26.60
2024-03-08T09:11:44.599Z,28.43
2024-03-08T09:14:13.437Z,28.80
2024-03-08T09:16:42.182Z,27.63
2024-03-08T09:19:12.140Z,24.43
2024-03-08T09:21:41.226Z,29.03
2024-03-08T09:24:10.794Z,25.83
2024-03-08T09:26:39.444Z,26.07
2024-03-08T09:29:08.148Z,27.40
2024-03-08T09:31:36.266Z,27.67
2024-03-08T09:34:04.687Z,25.53
2024-03-08T09:36:34.302Z,34.20
2024-03-08T09:39:04.106Z,24.60
2024-03-08T09:41:35.097Z,24.10
2024-03-08T09:44:05.141Z,21.73
2024-03-08T09:46:33.366Z,23.30
2024-03-08T09:49:02.499Z,23.00
2024-03-08T09:51:31.703Z,22.53
2024-03-08T09:54:02.860Z,23.20
2024-03-08T09:56:35.361Z,18.63
2024-03-08T09:59:42.490Z,20.33
2024-03-08T10:02:17.138Z,22.43
2024-03-08T10:04:47.679Z,20.13
2024-03-08T10:07:16.558Z,20.50
2024-03-08T10:09:50.642Z,19.50
2024-03-08T10:12:20.355Z,21.57
2024-03-08T10:14:48.816Z,18.80
2024-03-08T10:17:16.866Z,19.23
2024-03-08T10:19:52.859Z,21.50
2024-03-08T10:22:21.241Z,19.80
2024-03-08T10:24:49.907Z,22.90
2024-03-08T10:27:20.468Z,19.47
2024-03-08T10:29:51.574Z,18.20
2024-03-08T10:32:19.626Z,18.20
2024-03-08T10:34:48.938Z,16.73
2024-03-08T10:37:19.599Z,19.30
2024-03-08T10:40:00.889Z,16.47
2024-03-08T10:42:35.937Z,22.20
2024-03-08T10:45:13.595Z,17.23
2024-03-08T10:47:44.182Z,16.63
2024-03-08T10:50:21.962Z,17.03
2024-03-08T10:52:51.972Z,18.57
2024-03-08T10:55:21.604Z,19.43
2024-03-08T10:57:52.182Z,16.33
2024-03-08T11:00:27.779Z,17.63
2024-03-08T11:02:56.516Z,19.03
2024-03-08T11:05:40.403Z,19.80
2024-03-08T11:08:20.921Z,17.20
2024-03-08T11:10:52.728Z,18.80
2024-03-08T11:13:38.405Z,19.60
2024-03-08T11:16:10.767Z,19.07
2024-03-08T11:18:39.797Z,19.83
2024-03-08T11:21:13.737Z,16.58
2024-03-08T11:23:42.932Z,15.00
2024-03-08T11:26:20.457Z,17.40
2024-03-08T11:28:53.050Z,16.55
2024-03-08T11:31:29.529Z,15.32
2024-03-08T11:33:58.936Z,14.97
2024-03-08T11:36:27.377Z,15.23
2024-03-08T11:38:57.200Z,16.77
2024-03-08T11:41:26.533Z,13.80
2024-03-08T11:44:07.926Z,14.37
2024-03-08T11:46:36.680Z,17.97
2024-03-08T11:49:06.845Z,18.37
2024-03-08T11:51:35.157Z,19.77
2024-03-08T11:54:03.751Z,19.40
2024-03-08T11:56:33.311Z,19.37
2024-03-08T11:59:03.061Z,18.53
2024-03-08T12:01:33.231Z,16.03
2024-03-08T12:04:02.559Z,20.37
2024-03-08T12:06:41.666Z,16.30
2024-03-08T12:09:13.992Z,18.90
2024-03-08T12:11:44.042Z,18.30
2024-03-08T12:14:12.472Z,18.73
2024-03-08T12:16:42.057Z,19.60
2024-03-08T12:19:10.448Z,18.20
2024-03-08T12:21:38.844Z,19.30
2024-03-08T12:24:09.947Z,16.10
2024-03-08T12:26:41.258Z,22.00
2024-03-08T12:29:21.465Z,15.87
2024-03-08T12:31:53.220Z,18.33
2024-03-08T12:34:21.764Z,15.90
2024-03-08T12:36:51.440Z,19.47
2024-03-08T12:39:23.356Z,16.70
2024-03-08T12:41:52.770Z,18.77
2024-03-08T12:44:22.762Z,20.13
2024-03-08T12:46:53.702Z,17.80
2024-03-08T12:49:23.650Z,19.10
2024-03-08T12:51:53.757Z,15.53
2024-03-08T12:54:24.900Z,20.67
2024-03-08T12:56:54.923Z,23.83
2024-03-08T12:59:24.602Z,18.80
2024-03-08T13:01:55.320Z,22.23
2024-03-08T13:04:23.739Z,18.30
2024-03-08T13:06:55.091Z,24.93
2024-03-08T13:09:24.715Z,20.00
2024-03-08T13:11:54.890Z,21.60
2024-03-08T13:14:23.282Z,18.53
2024-03-08T13:16:52.846Z,19.93
2024-03-08T13:19:23.193Z,15.70
2024-03-08T13:21:51.394Z,20.47
2024-03-08T13:24:20.164Z,17.60
2024-03-08T13:26:49.216Z,16.70
2024-03-08T13:29:19.622Z,17.60
2024-03-08T13:31:52.753Z,16.27
2024-03-08T13:34:28.952Z,20.47
2024-03-08T13:37:01.747Z,20.53
2024-03-08T13:39:32.379Z,18.03
2024-03-08T13:42:00.723Z,20.77
2024-03-08T13:44:29.138Z,17.43
2024-03-08T13:46:59.401Z,17.70
2024-03-08T13:49:28.530Z,18.47
2024-03-08T13:51:58.336Z,18.03
2024-03-08T13:54:31.555Z,18.57
2024-03-08T13:57:00.033Z,20.43
2024-03-08T13:59:30.348Z,22.43
2024-03-08T14:02:00.859Z,17.17
2024-03-08T14:04:29.305Z,19.43
2024-03-08T14:07:02.835Z,22.17
2024-03-08T14:09:32.741Z,19.33
2024-03-08T14:12:01.088Z,19.53
2024-03-08T14:14:29.392Z,15.23
2024-03-08T14:16:59.410Z,16.97
2024-03-08T14:19:27.970Z,20.10
2024-03-08T14:21:56.070Z,18.53
2024-03-08T14:24:25.061Z,17.77
2024-03-08T14:26:55.188Z,19.63
2024-03-08T14:29:23.531Z,21.33
2024-03-08T14:31:51.899Z,21.10
2024-03-08T14:34:21.493Z,16.17
2024-03-08T14:36:49.638Z,23.00
2024-03-08T14:39:22.736Z,18.80
2024-03-08T14:41:50.848Z,19.37
2024-03-08T14:44:20.305Z,20.33
2024-03-08T14:46:50.054Z,22.83
2024-03-08T14:49:19.896Z,17.53
2024-03-08T14:51:48.203Z,19.53
2024-03-08T14:54:16.437Z,25.03
2024-03-08T14:56:44.729Z,20.63
2024-03-08T14:59:14.498Z,24.93
2024-03-08T15:01:44.262Z,18.80
2024-03-08T15:04:12.662Z,19.00
2024-03-08T15:06:41.260Z,20.13
2024-03-08T15:09:13.451Z,20.37
2024-03-08T15:11:43.117Z,20.50
2024-03-08T15:14:12.833Z,19.30
2024-03-08T15:16:42.428Z,18.70
2024-03-08T15:19:13.158Z,19.07
2024-03-08T15:21:42.214Z,20.40
2024-03-08T15:24:16.099Z,19.13
2024-03-08T15:26:48.079Z,20.07
2024-03-08T15:29:25.457Z,20.30
2024-03-08T15:31:55.133Z,18.87
2024-03-08T15:34:25.214Z,22.70
2024-03-08T15:36:54.431Z,16.33
2024-03-08T15:39:24.246Z,21.23
2024-03-08T15:41:52.496Z,20.80
2024-03-08T15:44:21.824Z,16.33
2024-03-08T15:46:50.967Z,24.47
2024-03-08T15:49:19.967Z,18.87
2024-03-08T15:51:50.826Z,17.20
2024-03-08T15:54:19.732Z,20.53
2024-03-08T15:56:48.056Z,17.60
2024-03-08T15:59:16.803Z,17.47
2024-03-08T16:01:49.854Z,17.60
2024-03-08T16:04:18.312Z,22.93
2024-03-08T16:06:46.740Z,19.20
2024-03-08T16:09:16.694Z,19.67
2024-03-08T16:11:45.618Z,17.37
2024-03-08T16:14:17.195Z,17.13
2024-03-08T16:16:45.744Z,20.07
2024-03-08T16:19:15.020Z,19.87
2024-03-08T16:21:44.838Z,19.10
2024-03-08T16:24:13.176Z,17.47
2024-03-08T16:26:42.535Z,19.77
2024-03-08T16:29:10.994Z,24.47
2024-03-08T16:31:39.435Z,19.37
2024-03-08T16:34:09.654Z,18.83
2024-03-08T16:36:41.086Z,20.07
2024-03-08T16:39:10.553Z,21.60
2024-03-08T16:41:38.860Z,23.20
2024-03-08T16:44:10.023Z,25.93
2024-03-08T16:46:40.781Z,20.90
2024-03-08T16:49:11.535Z,22.93
2024-03-08T16:51:40.187Z,22.87
2024-03-08T16:54:09.481Z,23.77
2024-03-08T16:56:39.254Z,24.67
2024-03-08T16:59:09.694Z,23.33
2024-03-08T17:01:39.665Z,25.40
2024-03-08T17:04:08.314Z,23.67
2024-03-08T17:06:36.636Z,25.77
2024-03-08T17:09:11.787Z,25.67
2024-03-08T17:11:40.324Z,19.57
2024-03-08T17:14:09.747Z,26.37
2024-03-08T17:16:38.690Z,23.27
2024-03-08T17:19:07.697Z,23.20
2024-03-08T17:21:36.094Z,22.10
2024-03-08T17:24:04.992Z,21.57
2024-03-08T17:26:33.347Z,23.33
2024-03-08T17:29:01.794Z,23.33
2024-03-08T17:31:33.185Z,25.00
2024-03-08T17:34:02.075Z,26.87
2024-03-08T17:36:30.446Z,25.00
2024-03-08T17:38:58.791Z,22.50
2024-03-08T17:41:27.085Z,27.57
2024-03-08T17:43:55.668Z,24.23
2024-03-08T17:46:23.711Z,25.27
2024-03-08T17:48:55.066Z,27.33
2024-03-08T17:51:23.723Z,23.40
2024-03-08T17:53:52.250Z,22.50
2024-03-08T17:56:20.699Z,25.83
2024-03-08T17:58:52.365Z,24.37
2024-03-08T18:01:20.986Z,22.80
2024-03-08T18:03:50.527Z,23.07
2024-03-08T18:06:19.970Z,27.77
2024-03-08T18:08:48.279Z,23.60
2024-03-08T18:11:17.253Z,22.37
2024-03-08T18:13:45.638Z,24.67
2024-03-08T18:16:13.955Z,25.00
2024-03-08T18:18:42.353Z,26.60
2024-03-08T18:21:10.646Z,27.37
2024-03-08T18:23:41.377Z,28.30
2024-03-08T18:26:09.778Z,22.70
2024-03-08T18:28:39.376Z,26.20
2024-03-08T18:31:08.153Z,26.27
2024-03-08T18:33:36.237Z,24.83
2024-03-08T18:36:07.780Z,27.47
2024-03-08T18:38:36.136Z,28.13
2024-03-08T18:41:06.023Z,27.40
2024-03-08T18:43:35.233Z,25.53
2024-03-08T18:46:05.296Z,25.77
2024-03-08T18:48:33.711Z,26.57
2024-03-08T18:51:02.170Z,28.90
2024-03-08T18:53:31.501Z,26.87
2024-03-08T18:56:00.077Z,26.27
2024-03-08T18:58:39.337Z,27.07
2024-03-08T19:01:14.077Z,35.47
2024-03-08T19:03:47.028Z,30.10
2024-03-08T19:06:19.039Z,25.47
2024-03-08T19:08:49.613Z,28.37
2024-03-08T19:11:18.060Z,26.70
2024-03-08T19:13:47.965Z,24.37
2024-03-08T19:16:17.822Z,29.60
2024-03-08T19:18:46.253Z,25.90
2024-03-08T19:21:14.828Z,28.93
2024-03-08T19:23:45.375Z,26.50
2024-03-08T19:26:13.888Z,23.27
2024-03-08T19:28:42.678Z,32.03
2024-03-08T19:31:12.442Z,25.63
2024-03-08T19:33:41.490Z,29.03
2024-03-08T19:36:13.492Z,25.43
2024-03-08T19:38:41.924Z,28.53
2024-03-08T19:41:13.140Z,25.23
2024-03-08T19:43:42.617Z,32.80
2024-03-08T19:46:13.066Z,27.03
2024-03-08T19:48:44.667Z,27.03
2024-03-08T19:51:14.643Z,31.17
2024-03-08T19:53:43.391Z,30.80
2024-03-08T19:56:11.777Z,25.80
2024-03-08T19:58:39.891Z,27.53
2024-03-08T20:01:10.502Z,30.33
2024-03-08T20:03:40.534Z,33.03
2024-03-08T20:06:09.186Z,28.10
2024-03-08T20:08:42.109Z,28.03
2024-03-08T20:11:11.691Z,31.27
2024-03-08T20:13:41.868Z,26.67
2024-03-08T20:16:10.572Z,29.40
2024-03-08T20:18:40.523Z,30.30
2024-03-08T20:21:09.335Z,35.37
2024-03-08T20:23:37.827Z,27.80
2024-03-08T20:26:11.965Z,32.40
2024-03-08T20:28:43.140Z,34.20
2024-03-08T20:31:13.572Z,30.63
2024-03-08T20:33:44.607Z,26.00
2024-03-08T20:36:13.135Z,31.97
2024-03-08T20:38:42.507Z,30.43
2024-03-08T20:41:12.770Z,36.10
2024-03-08T20:43:42.533Z,37.63
2024-03-08T20:46:12.064Z,28.37
2024-03-08T20:48:41.491Z,34.67
2024-03-08T20:51:12.832Z,29.77
2024-03-08T20:53:42.293Z,30.97
2024-03-08T20:56:11.070Z,33.20
2024-03-08T20:58:39.954Z,29.40
2024-03-08T21:01:10.033Z,30.20
2024-03-08T21:03:38.898Z,29.63
2024-03-08T21:06:08.639Z,31.37
2024-03-08T21:08:39.511Z,30.83
2024-03-08T21:11:10.252Z,33.37
2024-03-08T21:13:38.786Z,35.30
2024-03-08T21:16:07.474Z,36.33
2024-03-08T21:18:37.761Z,33.37
2024-03-08T21:21:07.220Z,38.43
2024-03-08T21:23:35.528Z,35.10
2024-03-08T21:26:10.384Z,32.43
2024-03-08T21:28:39.336Z,32.93
2024-03-08T21:31:07.753Z,33.73
2024-03-08T21:33:37.265Z,30.93
2024-03-08T21:36:05.894Z,31.30
2024-03-08T21:38:34.344Z,33.57
2024-03-08T21:41:04.362Z,30.10
2024-03-08T21:43:36.055Z,36.57
2024-03-08T21:46:05.203Z,31.97
2024-03-08T21:48:34.106Z,32.57
2024-03-08T21:51:02.704Z,34.23
2024-03-08T21:53:35.358Z,32.87
2024-03-08T21:56:05.884Z,31.17
2024-03-08T21:58:36.074Z,32.70
2024-03-08T22:01:05.995Z,37.77
2024-03-08T22:03:36.819Z,30.63
2024-03-08T22:06:11.041Z,37.57
2024-03-08T22:08:41.616Z,32.87
2024-03-08T22:11:10.242Z,33.57
2024-03-08T22:13:40.550Z,37.50
2024-03-08T22:16:10.067Z,34.50
2024-03-08T22:18:38.638Z,34.33
2024-03-08T22:21:07.978Z,31.00
2024-03-08T22:23:38.739Z,34.97
2024-03-08T22:26:10.999Z,34.07
2024-03-08T22:28:42.688Z,35.67
2024-03-08T22:31:11.134Z,28.80
2024-03-08T22:33:40.360Z,33.07
2024-03-08T22:36:09.377Z,33.87
2024-03-08T22:38:37.993Z,35.90
2024-03-08T22:41:10.931Z,31.37
2024-03-08T22:43:42.466Z,36.10
2024-03-08T22:46:11.473Z,32.17
2024-03-08T22:48:41.954Z,30.00
2024-03-08T22:51:12.484Z,33.43
2024-03-08T22:53:42.447Z,30.20
2024-03-08T22:56:12.293Z,33.80
2024-03-08T22:58:45.085Z,30.70
2024-03-08T23:01:17.676Z,33.93
2024-03-08T23:03:47.026Z,35.27
2024-03-08T23:06:22.069Z,32.53
2024-03-08T23:08:51.595Z,33.67
2024-03-08T23:11:20.159Z,35.10
2024-03-08T23:13:50.151Z,31.63
2024-03-08T23:16:18.463Z,32.70
2024-03-08T23:18:49.471Z,30.37
2024-03-08T23:21:17.885Z,32.07
2024-03-08T23:23:47.532Z,36.10
2024-03-08T23:26:16.483Z,29.40
2024-03-08T23:28:45.546Z,32.77
2024-03-08T23:31:15.618Z,33.03
2024-03-08T23:33:47.510Z,31.23
2024-03-08T23:36:15.816Z,34.77
2024-03-08T23:38:44.185Z,30.80
2024-03-08T23:41:12.579Z,30.17
2024-03-08T23:43:44.362Z,33.20
2024-03-08T23:46:13.451Z,36.80
2024-03-08T23:48:44.783Z,36.73
2024-03-08T23:51:13.908Z,37.27
2024-03-08T23:53:42.455Z,53.10
2024-03-08T23:56:12.473Z,30.40
2024-03-08T23:58:42.151Z,33.63
